Time;durP1;ratioP1;P1;durP2;ratioP2;P2;SDS_P1;SDS_P2;PMS_P1;PMS_P2;Temp;Humidity;BMP_temperature;BMP_pressure;BME280_temperature;BME280_humidity;BME280_pressure;Samples;Min_cycle;Max_cycle;Signal;HPM_P1;HPM_P2
2022/04/15 00:00:12;;;;;;;13.35;6.90;;;8.10;99.90;;;;;;5047047;28;20532;-83
2022/04/15 00:02:38;;;;;;;19.27;7.57;;;8.00;99.90;;;;;;5032230;28;20045;-83
2022/04/15 00:05:29;;;;;;;14.80;7.00;;;8.00;99.90;;;;;;4988829;28;20087;-82
2022/04/15 00:07:50;;;;;;;13.43;7.38;;;8.00;99.90;;;;;;5031165;28;20072;-82
2022/04/15 00:10:16;;;;;;;17.33;7.15;;;7.90;99.90;;;;;;5031450;28;20049;-82
2022/04/15 00:12:42;;;;;;;15.52;7.60;;;7.90;99.90;;;;;;5016187;28;20214;-82
2022/04/15 00:15:08;;;;;;;16.13;7.70;;;7.80;99.90;;;;;;5031334;28;20628;-82
2022/04/15 00:17:34;;;;;;;;;;;7.80;99.90;;;;;;5048691;28;20048;-82
2022/04/15 00:19:59;;;;;;;45.90;7.03;;;7.80;99.90;;;;;;5048454;28;20397;-82
2022/04/15 00:22:25;;;;;;;14.32;6.78;;;7.70;99.90;;;;;;5031198;28;20094;-82
2022/04/15 00:24:51;;;;;;;105.63;10.13;;;7.70;99.90;;;;;;5032080;28;20051;-82
2022/04/15 00:27:16;;;;;;;272.35;15.77;;;7.60;99.90;;;;;;5015238;28;20056;-82
2022/04/15 00:29:42;;;;;;;193.98;13.32;;;7.60;99.90;;;;;;5031552;28;20049;-82
2022/04/15 00:32:08;;;;;;;252.50;12.52;;;7.50;99.90;;;;;;5031705;28;20126;-82
2022/04/15 00:34:35;;;;;;;13.15;6.57;;;7.40;99.90;;;;;;5031703;28;20049;-82
2022/04/15 00:37:00;;;;;;;12.70;6.50;;;7.30;99.90;;;;;;5031912;28;20053;-82
2022/04/15 00:39:26;;;;;;;18.58;7.68;;;7.30;99.90;;;;;;5030649;28;20816;-82
2022/04/15 00:41:52;;;;;;;54.83;8.55;;;7.40;99.90;;;;;;5031741;28;20049;-82
2022/04/15 00:44:18;;;;;;;98.53;9.32;;;7.20;99.90;;;;;;5015472;28;20045;-82
2022/04/15 00:46:43;;;;;;;35.63;8.13;;;7.30;99.90;;;;;;5035083;28;20091;-82
2022/04/15 00:49:09;;;;;;;367.50;19.42;;;7.30;99.90;;;;;;5035246;28;20044;-82
2022/04/15 00:51:36;;;;;;;162.30;11.75;;;7.20;99.90;;;;;;5010313;28;20540;-82
2022/04/15 00:54:03;;;;;;;323.85;17.65;;;7.20;99.90;;;;;;5019262;28;20045;-82
2022/04/15 00:56:35;;;;;;;228.88;13.75;;;7.10;99.90;;;;;;4999894;28;20102;-82
2022/04/15 00:59:02;;;;;;;357.77;16.05;;;7.10;99.90;;;;;;5014830;28;20041;-82
2022/04/15 01:01:28;;;;;;;459.13;18.33;;;7.10;99.90;;;;;;5015845;28;20088;-82
2022/04/15 01:03:55;;;;;;;314.83;13.50;;;7.00;99.90;;;;;;5035401;28;20077;-82
2022/04/15 01:06:24;;;;;;;332.00;16.50;;;7.50;99.90;;;;;;5017925;28;20494;-82
2022/04/15 01:08:53;;;;;;;488.00;20.70;;;6.80;99.90;;;;;;5017796;28;20128;-82
2022/04/15 01:11:21;;;;;;;524.70;23.00;;;6.80;99.90;;;;;;5034485;28;20106;-81
2022/04/15 01:13:48;;;;;;;479.35;20.15;;;6.60;99.90;;;;;;5034332;28;20057;-82
2022/04/15 01:16:14;;;;;;;495.17;23.60;;;6.60;99.90;;;;;;5034673;28;20190;-82
2022/04/15 01:18:40;;;;;;;382.40;19.38;;;6.50;99.90;;;;;;5015094;28;20479;-82
2022/04/15 01:21:07;;;;;;;279.73;16.48;;;6.40;99.90;;;;;;5015544;28;20047;-83
2022/04/15 01:23:33;;;;;;;138.73;13.15;;;6.40;99.90;;;;;;5033761;28;20049;-82
2022/04/15 01:25:58;;;;;;;28.58;10.68;;;6.40;99.90;;;;;;5034637;28;20075;-82
2022/04/15 01:28:24;;;;;;;47.08;10.30;;;6.50;99.90;;;;;;5000875;28;20127;-82
2022/04/15 01:30:50;;;;;;;61.28;12.40;;;6.60;99.90;;;;;;5034494;28;20049;-82
2022/04/15 01:33:16;;;;;;;22.73;9.65;;;6.60;99.90;;;;;;5034070;28;20045;-82
2022/04/15 01:35:42;;;;;;;25.77;10.23;;;6.70;99.90;;;;;;5034934;28;20052;-82
2022/04/15 01:38:14;;;;;;;20.42;10.57;;;6.80;99.90;;;;;;5017218;28;20043;-82
2022/04/15 01:40:41;;;;;;;20.65;10.20;;;6.90;99.90;;;;;;5017029;28;20057;-82
2022/04/15 01:43:07;;;;;;;22.08;9.63;;;6.90;99.90;;;;;;5017788;28;20049;-82
2022/04/15 01:45:33;;;;;;;18.85;9.60;;;7.00;99.90;;;;;;5033427;28;20060;-82
2022/04/15 01:47:58;;;;;;;17.40;9.63;;;7.00;99.90;;;;;;5018208;28;20045;-82
2022/04/15 01:50:24;;;;;;;17.92;9.73;;;7.00;99.90;;;;;;5034111;28;20068;-82
2022/04/15 01:52:50;;;;;;;24.20;10.13;;;7.50;99.90;;;;;;5033725;28;20048;-82
2022/04/15 01:55:15;;;;;;;17.63;9.63;;;7.10;99.90;;;;;;5017395;28;20045;-82
2022/04/15 01:57:41;;;;;;;17.42;9.57;;;7.10;99.90;;;;;;5016712;28;20472;-82
2022/04/15 02:00:07;;;;;;;17.65;9.90;;;7.10;99.90;;;;;;5032535;28;20052;-82
2022/04/15 02:02:33;;;;;;;;;;;7.20;99.90;;;;;;5034034;28;20049;-82
2022/04/15 02:04:59;;;;;;;22.20;8.77;;;7.20;99.90;;;;;;5017814;28;20268;-82
2022/04/15 02:07:25;;;;;;;20.35;9.80;;;7.40;99.90;;;;;;5016845;28;20087;-82
2022/04/15 02:09:51;;;;;;;15.10;8.57;;;7.30;99.90;;;;;;5017509;28;20080;-82
2022/04/15 02:12:16;;;;;;;17.55;8.68;;;7.20;99.90;;;;;;5017790;28;20044;-82
2022/04/15 02:14:42;;;;;;;17.83;8.75;;;7.30;99.90;;;;;;5016355;28;20055;-82
2022/04/15 02:17:08;;;;;;;15.73;8.65;;;7.30;99.90;;;;;;5033640;28;20044;-82
2022/04/15 02:19:33;;;;;;;18.08;8.52;;;7.40;99.90;;;;;;5032858;28;20124;-83
2022/04/15 02:21:59;;;;;;;25.00;9.15;;;7.50;99.90;;;;;;5013634;28;20049;-82
2022/04/15 02:24:25;;;;;;;18.90;9.00;;;7.40;99.90;;;;;;5013343;28;20049;-82
2022/04/15 02:26:51;;;;;;;20.58;8.88;;;7.50;99.90;;;;;;5030389;28;20056;-83
2022/04/15 02:29:16;;;;;;;18.98;9.60;;;7.50;99.90;;;;;;5013353;28;20562;-83
2022/04/15 02:31:42;;;;;;;15.05;8.70;;;7.50;99.90;;;;;;5042185;28;20047;-82
2022/04/15 02:34:08;;;;;;;;;;;7.60;99.90;;;;;;5017611;28;20075;-83
2022/04/15 02:36:34;;;;;;;19.50;8.35;;;7.50;99.90;;;;;;5016267;28;19921;-82
2022/04/15 02:38:59;;;;;;;15.15;9.25;;;7.50;99.90;;;;;;5032756;28;20041;-83
2022/04/15 02:41:25;;;;;;;19.92;9.07;;;7.50;99.90;;;;;;5012209;28;20053;-82
2022/04/15 02:43:51;;;;;;;17.67;9.25;;;7.60;99.90;;;;;;5029450;28;20042;-82
2022/04/15 02:46:18;;;;;;;19.08;8.32;;;7.60;99.90;;;;;;5029889;28;20403;-83
2022/04/15 02:48:44;;;;;;;16.23;8.50;;;7.60;99.90;;;;;;5029719;28;20139;-82
2022/04/15 02:51:10;;;;;;;20.92;8.70;;;7.70;99.90;;;;;;5013290;28;20194;-82
2022/04/15 02:53:36;;;;;;;16.70;8.93;;;7.70;99.90;;;;;;5029019;28;20056;-82
2022/04/15 02:56:02;;;;;;;19.13;8.60;;;7.70;99.90;;;;;;5029978;28;20041;-83
2022/04/15 02:58:28;;;;;;;18.40;8.82;;;7.80;99.90;;;;;;5028081;28;20079;-82
2022/04/15 03:00:53;;;;;;;14.35;8.10;;;8.10;99.90;;;;;;5029680;28;20049;-83
2022/04/15 03:03:19;;;;;;;14.02;7.97;;;7.80;99.90;;;;;;5029609;28;20048;-83
2022/04/15 03:05:45;;;;;;;22.02;9.05;;;7.80;99.90;;;;;;5012994;28;20056;-82
2022/04/15 03:08:10;;;;;;;14.70;8.57;;;7.80;99.90;;;;;;5028679;28;20758;-83
2022/04/15 03:10:36;;;;;;;17.45;8.70;;;8.00;99.90;;;;;;4996388;28;20053;-82
2022/04/15 03:13:03;;;;;;;17.55;9.25;;;7.80;99.90;;;;;;5013019;28;20046;-83
2022/04/15 03:15:28;;;;;;;19.25;9.20;;;7.80;99.90;;;;;;5028494;28;20053;-83
2022/04/15 03:17:54;;;;;;;18.00;8.55;;;7.80;99.90;;;;;;5029788;28;20471;-82
2022/04/15 03:20:21;;;;;;;18.77;8.93;;;7.80;99.90;;;;;;5029019;28;20042;-82
2022/04/15 03:22:47;;;;;;;17.05;8.38;;;7.80;99.90;;;;;;5012078;28;20092;-83
2022/04/15 03:25:17;;;;;;;15.73;8.50;;;7.80;99.90;;;;;;5029386;28;20076;-83
2022/04/15 03:27:43;;;;;;;18.88;8.48;;;7.80;99.90;;;;;;5029231;28;20049;-82
2022/04/15 03:30:11;;;;;;;;;;;7.80;99.90;;;;;;5012228;28;20056;-83
2022/04/15 03:32:51;;;;;;;15.85;7.22;;;7.80;99.90;;;;;;5029098;28;19928;-82
2022/04/15 03:35:20;;;;;;;14.52;8.40;;;7.80;99.90;;;;;;5029481;28;20045;-83
2022/04/15 03:37:52;;;;;;;15.95;8.25;;;7.80;99.90;;;;;;5028189;28;20540;-83
2022/04/15 03:40:19;;;;;;;17.95;7.78;;;7.90;99.90;;;;;;5012362;28;20061;-83
2022/04/15 03:42:50;;;;;;;18.92;7.90;;;7.80;99.90;;;;;;5028890;28;20055;-83
2022/04/15 03:45:19;;;;;;;20.85;8.13;;;7.90;99.90;;;;;;5011783;28;20475;-83
2022/04/15 03:47:48;;;;;;;19.27;8.60;;;7.80;99.90;;;;;;5012842;28;20053;-83
2022/04/15 03:50:15;;;;;;;15.23;8.25;;;7.80;99.90;;;;;;5045464;28;20053;-83
2022/04/15 03:52:44;;;;;;;16.52;8.23;;;7.80;99.90;;;;;;5027887;28;20041;-82
2022/04/15 03:55:11;;;;;;;18.35;8.98;;;7.80;99.90;;;;;;5012070;28;20057;-83
2022/04/15 03:57:40;;;;;;;18.33;8.52;;;7.80;99.90;;;;;;5028848;28;20046;-83
2022/04/15 04:00:14;;;;;;;18.13;8.57;;;7.80;99.90;;;;;;5027736;28;20044;-83
2022/04/15 04:02:43;;;;;;;18.05;8.38;;;7.80;99.90;;;;;;5012314;28;20042;-83
2022/04/15 04:05:09;;;;;;;20.85;9.13;;;7.80;99.90;;;;;;5009588;28;20081;-83
2022/04/15 04:07:35;;;;;;;;;;;7.80;99.90;;;;;;5028233;28;20132;-82
2022/04/15 04:10:01;;;;;;;19.17;7.97;;;7.80;99.90;;;;;;5028896;28;20003;-82
2022/04/15 04:12:31;;;;;;;18.92;8.20;;;7.80;99.90;;;;;;5029177;28;20510;-83
2022/04/15 04:14:57;;;;;;;15.63;8.25;;;7.80;99.90;;;;;;4995258;28;20092;-83
2022/04/15 04:17:23;;;;;;;19.55;8.18;;;7.90;99.90;;;;;;4996427;28;20084;-83
2022/04/15 04:19:48;;;;;;;19.23;8.32;;;7.90;99.90;;;;;;5015455;28;20037;-83
2022/04/15 04:22:14;;;;;;;14.43;7.82;;;7.90;99.90;;;;;;5031874;28;20494;-83
2022/04/15 04:24:40;;;;;;;15.70;8.32;;;7.90;99.90;;;;;;5015671;28;20080;-82
2022/04/15 04:27:05;;;;;;;15.90;8.80;;;8.00;99.90;;;;;;5016472;28;20474;-82
2022/04/15 04:29:31;;;;;;;16.05;8.02;;;7.90;99.90;;;;;;5015077;28;20372;-83
2022/04/15 04:31:57;;;;;;;19.67;8.38;;;7.80;99.90;;;;;;5031673;28;20053;-83
2022/04/15 04:34:22;;;;;;;19.77;9.00;;;7.80;99.90;;;;;;5016317;28;20495;-82
2022/04/15 04:36:48;;;;;;;17.83;8.70;;;7.80;99.90;;;;;;5031460;28;20160;-83
2022/04/15 04:39:14;;;;;;;20.35;8.88;;;7.90;99.90;;;;;;5032454;28;20050;-83
2022/04/15 04:41:40;;;;;;;18.42;8.98;;;7.90;99.90;;;;;;5014847;28;20053;-82
2022/04/15 04:44:06;;;;;;;;;;;7.80;99.90;;;;;;5015561;28;20077;-83
2022/04/15 04:46:33;;;;;;;14.70;7.72;;;7.80;99.90;;;;;;5018138;28;19921;-82
2022/04/15 04:48:58;;;;;;;15.57;7.63;;;7.80;99.90;;;;;;5020602;28;20048;-83
2022/04/15 04:51:24;;;;;;;16.27;8.43;;;7.80;99.90;;;;;;5015845;28;20490;-83
2022/04/15 04:53:50;;;;;;;14.95;8.32;;;7.90;99.90;;;;;;5014080;28;20562;-83
2022/04/15 04:56:16;;;;;;;16.42;8.55;;;7.90;99.90;;;;;;5032027;28;20053;-83
2022/04/15 04:58:42;;;;;;;18.08;8.27;;;7.90;99.90;;;;;;5014312;28;20479;-83
2022/04/15 05:01:08;;;;;;;18.58;8.63;;;7.90;99.90;;;;;;5031637;28;20049;-83
2022/04/15 05:03:33;;;;;;;17.08;8.20;;;8.00;99.90;;;;;;5015013;28;20049;-83
2022/04/15 05:05:59;;;;;;;16.27;8.20;;;8.10;99.90;;;;;;5032061;28;20070;-83
2022/04/15 05:08:25;;;;;;;16.63;8.52;;;8.00;99.90;;;;;;5014926;28;20060;-82
2022/04/15 05:10:50;;;;;;;15.43;8.02;;;8.00;99.90;;;;;;5031090;28;20121;-83
2022/04/15 05:13:16;;;;;;;18.13;8.55;;;8.00;99.90;;;;;;5014092;28;20112;-83
2022/04/15 05:15:42;;;;;;;17.88;8.85;;;8.00;99.90;;;;;;5014578;28;20132;-83
2022/04/15 05:18:08;;;;;;;17.67;9.07;;;8.00;99.90;;;;;;5015442;28;20056;-83
2022/04/15 05:20:34;;;;;;;20.50;9.00;;;8.00;99.90;;;;;;5031195;28;20045;-82
2022/04/15 05:23:00;;;;;;;19.33;8.73;;;8.00;99.90;;;;;;5014983;28;20107;-83
2022/04/15 05:25:26;;;;;;;17.25;8.68;;;8.00;99.90;;;;;;5031524;28;20042;-83
2022/04/15 05:27:52;;;;;;;17.45;8.73;;;8.00;99.90;;;;;;5014825;28;20061;-82
2022/04/15 05:30:18;;;;;;;20.55;9.60;;;8.00;99.90;;;;;;4996927;28;20544;-83
2022/04/15 05:32:44;;;;;;;15.95;9.55;;;8.10;99.90;;;;;;5003334;28;20041;-83
2022/04/15 05:35:09;;;;;;;17.95;9.18;;;8.10;99.90;;;;;;5011370;28;20046;-83
2022/04/15 05:37:35;;;;;;;17.35;9.52;;;8.10;99.90;;;;;;5027552;28;20045;-82
2022/04/15 05:40:03;;;;;;;16.83;8.65;;;8.10;99.90;;;;;;5016099;28;20060;-83
2022/04/15 05:42:28;;;;;;;14.45;8.38;;;8.00;99.90;;;;;;5031423;28;20049;-83
2022/04/15 05:44:54;;;;;;;16.52;8.32;;;8.00;99.90;;;;;;5013180;28;20135;-83
2022/04/15 05:47:20;;;;;;;12.57;8.00;;;8.00;99.90;;;;;;5031478;28;20060;-83
2022/04/15 05:49:45;;;;;;;12.13;7.80;;;8.00;99.90;;;;;;5014217;28;20132;-83
2022/04/15 05:52:11;;;;;;;13.93;7.82;;;8.10;99.90;;;;;;5014569;28;20052;-83
2022/04/15 05:54:37;;;;;;;13.70;7.47;;;8.00;99.90;;;;;;4997510;28;20084;-83
2022/04/15 05:57:03;;;;;;;13.15;7.82;;;8.00;99.90;;;;;;5030721;28;20053;-83
2022/04/15 05:59:29;;;;;;;14.82;8.80;;;8.00;99.90;;;;;;5029831;28;20521;-83
2022/04/15 06:01:55;;;;;;;12.65;7.50;;;8.00;99.90;;;;;;5029984;28;20091;-83
2022/04/15 06:04:20;;;;;;;13.88;7.43;;;8.00;99.90;;;;;;5014685;28;20053;-82
2022/04/15 06:06:47;;;;;;;12.15;7.55;;;8.10;99.90;;;;;;5013509;28;20524;-83
2022/04/15 06:09:14;;;;;;;11.27;6.72;;;8.00;99.90;;;;;;5014260;28;20060;-83
2022/04/15 06:11:41;;;;;;;12.73;7.30;;;8.10;99.90;;;;;;5029399;28;20195;-83
2022/04/15 06:14:10;;;;;;;10.18;6.65;;;8.10;99.90;;;;;;5028923;28;20064;-83
2022/04/15 06:16:38;;;;;;;9.45;6.03;;;8.10;99.90;;;;;;5029640;28;20087;-83
2022/04/15 06:19:05;;;;;;;10.63;6.85;;;8.10;99.90;;;;;;5030416;28;20045;-83
2022/04/15 06:21:32;;;;;;;10.30;6.15;;;8.20;99.90;;;;;;5030223;28;20053;-82
2022/04/15 06:23:58;;;;;;;11.20;7.50;;;8.20;99.90;;;;;;5029771;28;20072;-83
2022/04/15 06:26:23;;;;;;;9.63;6.18;;;8.20;99.90;;;;;;5030397;28;20077;-82
2022/04/15 06:28:49;;;;;;;11.63;6.40;;;8.30;99.90;;;;;;5012028;28;20095;-83
2022/04/15 06:31:15;;;;;;;12.48;6.07;;;8.30;99.90;;;;;;5013656;28;20053;-83
2022/04/15 06:33:41;;;;;;;9.13;5.68;;;8.40;99.90;;;;;;5029857;28;20057;-83
2022/04/15 06:36:07;;;;;;;9.73;5.63;;;8.40;99.90;;;;;;4997468;28;20045;-82
2022/04/15 06:38:33;;;;;;;10.75;6.05;;;8.40;99.90;;;;;;5029329;28;20065;-82
2022/04/15 06:40:58;;;;;;;8.95;5.85;;;8.30;99.90;;;;;;5012621;28;20543;-85
2022/04/15 06:43:24;;;;;;;9.98;6.10;;;8.50;99.90;;;;;;5029271;28;20050;-86
2022/04/15 06:45:50;;;;;;;8.38;5.03;;;8.30;99.90;;;;;;5030847;28;20045;-86
2022/04/15 06:48:16;;;;;;;9.63;5.25;;;8.30;99.90;;;;;;5031262;28;20052;-84
2022/04/15 06:50:41;;;;;;;9.75;5.50;;;8.30;99.90;;;;;;5030264;28;20052;-83
2022/04/15 06:53:07;;;;;;;8.35;5.25;;;8.40;99.90;;;;;;5012946;28;20137;-82
2022/04/15 06:55:33;;;;;;;9.77;5.50;;;8.20;99.90;;;;;;5013482;28;20080;-82
2022/04/15 06:57:59;;;;;;;8.77;5.30;;;8.30;99.90;;;;;;5012748;28;20111;-84
2022/04/15 07:00:25;;;;;;;8.07;5.20;;;8.20;99.90;;;;;;4994949;28;20048;-87
2022/04/15 07:02:51;;;;;;;;;;;8.30;99.90;;;;;;5029770;28;20130;-82
2022/04/15 07:05:17;;;;;;;10.18;5.90;;;8.20;99.90;;;;;;5029604;28;19925;-82
2022/04/15 07:07:42;;;;;;;;;;;8.20;99.90;;;;;;5012965;28;20053;-83
2022/04/15 07:10:13;;;;;;;8.90;5.43;;;8.20;99.90;;;;;;5028752;28;20053;-82
2022/04/15 07:12:39;;;;;;;10.30;6.53;;;8.30;99.90;;;;;;5029244;28;20483;-82
2022/04/15 07:15:06;;;;;;;13.43;6.85;;;8.20;99.90;;;;;;5028147;28;20045;-82
2022/04/15 07:17:31;;;;;;;11.02;7.10;;;8.20;99.90;;;;;;5029745;28;20045;-82
2022/04/15 07:19:57;;;;;;;10.73;7.55;;;8.30;99.90;;;;;;5012430;28;20476;-82
2022/04/15 07:22:23;;;;;;;11.68;6.93;;;8.50;99.90;;;;;;5028530;28;20046;-82
2022/04/15 07:24:49;;;;;;;12.85;6.82;;;8.20;99.90;;;;;;4995431;28;20041;-82
2022/04/15 07:27:15;;;;;;;;;;;8.20;99.90;;;;;;5013192;28;20045;-82
2022/04/15 07:29:42;;;;;;;13.75;6.93;;;8.20;99.90;;;;;;5028397;28;20286;-82
2022/04/15 07:32:08;;;;;;;13.18;7.15;;;8.20;99.90;;;;;;5028951;28;20089;-83
2022/04/15 07:34:37;;;;;;;11.77;6.75;;;8.20;99.90;;;;;;5013198;28;20049;-82
2022/04/15 07:37:03;;;;;;;11.35;7.07;;;8.20;99.90;;;;;;5028550;28;20045;-83
2022/04/15 07:39:30;;;;;;;12.70;7.05;;;8.30;99.90;;;;;;5012793;28;20046;-82
2022/04/15 07:41:56;;;;;;;14.32;7.75;;;8.30;99.90;;;;;;4992674;28;20077;-82
2022/04/15 07:44:21;;;;;;;12.95;7.63;;;8.20;99.90;;;;;;4990839;28;20054;-83
2022/04/15 07:46:47;;;;;;;13.40;7.68;;;8.30;99.90;;;;;;4999109;28;20046;-82
2022/04/15 07:49:13;;;;;;;14.80;8.20;;;8.30;99.90;;;;;;4993459;28;20112;-82
2022/04/15 07:51:39;;;;;;;15.13;8.73;;;8.30;99.90;;;;;;5009227;28;20488;-82
2022/04/15 07:54:06;;;;;;;14.43;8.30;;;8.40;99.90;;;;;;5011530;28;20054;-82
2022/04/15 07:56:33;;;;;;;14.88;8.23;;;8.40;99.90;;;;;;5013242;28;20042;-82
2022/04/15 07:58:59;;;;;;;14.00;8.05;;;8.50;99.90;;;;;;4995726;28;20042;-82
2022/04/15 08:01:27;;;;;;;14.95;8.38;;;8.50;99.90;;;;;;5013206;28;20042;-82
2022/04/15 08:03:57;;;;;;;18.90;8.70;;;8.60;99.90;;;;;;5011850;28;20048;-82
2022/04/15 08:06:24;;;;;;;16.75;9.13;;;8.60;99.90;;;;;;4997089;28;20058;-82
2022/04/15 08:08:52;;;;;;;15.18;9.00;;;8.60;99.90;;;;;;5012347;28;20467;-82
2022/04/15 08:11:18;;;;;;;19.63;9.10;;;8.70;99.90;;;;;;5013078;28;20120;-82
2022/04/15 08:13:44;;;;;;;19.77;8.93;;;8.80;99.90;;;;;;5009213;28;20041;-82
2022/04/15 08:16:10;;;;;;;15.73;8.48;;;8.80;99.90;;;;;;4993626;28;20041;-82
2022/04/15 08:18:36;;;;;;;15.98;8.82;;;8.80;99.90;;;;;;4994416;28;20100;-83
2022/04/15 08:21:01;;;;;;;18.10;9.32;;;8.80;99.90;;;;;;4994273;28;20483;-83
2022/04/15 08:23:27;;;;;;;20.42;9.70;;;8.80;99.90;;;;;;5010134;28;20572;-83
2022/04/15 08:25:53;;;;;;;18.23;9.80;;;8.90;99.90;;;;;;5010582;28;20395;-83
2022/04/15 08:28:20;;;;;;;18.02;9.00;;;8.90;99.90;;;;;;4993474;28;20041;-82
2022/04/15 08:30:46;;;;;;;18.13;8.98;;;8.90;99.90;;;;;;5009684;28;20069;-82
2022/04/15 08:33:12;;;;;;;20.02;9.35;;;9.00;99.90;;;;;;4994334;28;20112;-82
2022/04/15 08:35:39;;;;;;;20.45;10.25;;;8.90;99.90;;;;;;4978334;28;20061;-82
2022/04/15 08:38:06;;;;;;;17.95;9.65;;;9.00;99.90;;;;;;5010107;28;20046;-82
2022/04/15 08:40:35;;;;;;;17.95;10.30;;;9.00;99.90;;;;;;4999219;28;20487;-83
2022/04/15 08:43:02;;;;;;;23.63;10.77;;;9.10;99.90;;;;;;5011352;28;20077;-82
2022/04/15 08:45:28;;;;;;;22.98;10.10;;;9.10;99.90;;;;;;5022256;28;20056;-82
2022/04/15 08:48:01;;;;;;;;;;;9.10;99.90;;;;;;4997148;28;20050;-82
2022/04/15 08:50:28;;;;;;;19.17;10.05;;;9.10;99.90;;;;;;5029263;28;19986;-83
2022/04/15 08:52:55;;;;;;;20.08;10.95;;;9.00;99.90;;;;;;5012705;28;20049;-85
2022/04/15 08:55:24;;;;;;;20.40;10.70;;;9.00;99.90;;;;;;5029689;28;20498;-82
2022/04/15 08:57:51;;;;;;;19.20;10.18;;;9.00;99.90;;;;;;5013459;28;20049;-81
2022/04/15 09:00:19;;;;;;;22.65;10.93;;;9.10;99.90;;;;;;5028939;28;20071;-82
2022/04/15 09:02:45;;;;;;;19.55;10.68;;;9.20;99.90;;;;;;5014379;28;20103;-82
2022/04/15 09:05:12;;;;;;;17.65;9.90;;;9.30;99.90;;;;;;4996678;28;20046;-82
2022/04/15 09:07:39;;;;;;;24.08;11.48;;;9.30;99.90;;;;;;5044266;28;20372;-81
2022/04/15 09:10:07;;;;;;;20.40;9.90;;;9.40;99.90;;;;;;5030320;28;20049;-84
2022/04/15 09:12:37;;;;;;;20.75;10.00;;;9.40;99.90;;;;;;5011652;28;20049;-81
2022/04/15 09:15:06;;;;;;;21.10;10.48;;;9.50;99.90;;;;;;5022570;28;21957;-89
2022/04/15 09:17:34;;;;;;;21.13;10.68;;;9.40;99.90;;;;;;5030229;28;20051;-83
2022/04/15 09:20:00;;;;;;;22.08;10.10;;;9.40;99.90;;;;;;5029973;28;20107;-82
2022/04/15 09:22:26;;;;;;;;;;;9.40;99.90;;;;;;5030029;28;20080;-82
2022/04/15 09:24:52;;;;;;;22.25;10.07;;;9.40;99.90;;;;;;5030030;28;19975;-82
2022/04/15 09:27:19;;;;;;;21.83;10.30;;;9.30;99.90;;;;;;5031091;28;20114;-81
2022/04/15 09:29:46;;;;;;;22.63;10.07;;;9.50;99.90;;;;;;5029979;28;20514;-81
2022/04/15 09:32:16;;;;;;;19.17;9.00;;;9.50;99.90;;;;;;4995982;28;20045;-81
2022/04/15 09:35:15;;;;;;;17.17;9.23;;;9.60;99.90;;;;;;5024789;28;20380;-82
2022/04/15 09:37:43;;;;;;;26.27;10.38;;;9.60;99.90;;;;;;5022682;28;20068;-81
2022/04/15 09:40:14;;;;;;;24.70;10.00;;;9.60;99.90;;;;;;5029479;28;20136;-81
2022/04/15 09:42:56;;;;;;;14.35;8.32;;;9.60;99.90;;;;;;5014578;28;20084;-81
2022/04/15 09:45:31;;;;;;;18.83;8.15;;;9.70;99.90;;;;;;5030033;28;20049;-81
2022/04/15 09:48:02;;;;;;;18.73;7.97;;;9.80;99.90;;;;;;5010261;28;20045;-81
2022/04/15 09:50:34;;;;;;;14.60;7.03;;;9.90;99.90;;;;;;5010911;28;20045;-81
2022/04/15 09:53:12;;;;;;;11.38;6.70;;;10.00;99.90;;;;;;5009927;28;20057;-82
2022/04/15 09:55:40;;;;;;;14.55;7.03;;;10.10;99.90;;;;;;4994529;28;20058;-82
2022/04/15 09:58:28;;;;;;;14.35;6.90;;;10.20;99.90;;;;;;4994012;28;20050;-81
2022/04/15 10:00:57;;;;;;;13.65;7.05;;;10.30;99.90;;;;;;5009908;28;20054;-82
2022/04/15 10:03:27;;;;;;;14.88;6.85;;;10.40;99.90;;;;;;5029095;28;20498;-81
2022/04/15 10:05:54;;;;;;;12.02;6.43;;;10.40;99.90;;;;;;5030083;28;20061;-82
2022/04/15 10:08:22;;;;;;;16.25;6.85;;;10.50;99.90;;;;;;5029654;28;20067;-81
2022/04/15 10:10:48;;;;;;;12.13;6.10;;;10.50;99.90;;;;;;5030228;28;20046;-81
2022/04/15 10:13:14;;;;;;;12.02;6.22;;;10.50;99.90;;;;;;5012341;28;20880;-81
2022/04/15 10:15:41;;;;;;;14.50;6.53;;;10.60;99.90;;;;;;5029551;28;20049;-81
2022/04/15 10:18:08;;;;;;;12.70;6.75;;;10.70;99.90;;;;;;5029647;28;20045;-81
2022/04/15 10:20:34;;;;;;;11.57;6.70;;;10.80;99.90;;;;;;5029594;28;20052;-83
2022/04/15 10:23:04;;;;;;;11.05;6.15;;;10.90;99.90;;;;;;5011883;28;20050;-83
2022/04/15 10:25:31;;;;;;;10.38;6.32;;;11.00;99.90;;;;;;5027970;28;20045;-83
2022/04/15 10:28:13;;;;;;;12.40;6.40;;;11.10;99.90;;;;;;5028570;28;20053;-81
2022/04/15 10:31:05;;;;;;;12.55;6.20;;;11.10;99.90;;;;;;5013162;28;20399;-80
2022/04/15 10:33:32;;;;;;;11.85;6.28;;;11.20;99.90;;;;;;5013400;28;20045;-80
2022/04/15 10:36:19;;;;;;;12.68;6.00;;;11.20;99.90;;;;;;5013018;28;20045;-80
2022/04/15 10:39:03;;;;;;;12.15;6.35;;;11.30;99.90;;;;;;5028552;28;20064;-80
2022/04/15 10:41:41;;;;;;;13.13;6.05;;;11.40;99.90;;;;;;5028896;28;20503;-80
2022/04/15 10:44:10;;;;;;;12.15;6.15;;;11.50;99.90;;;;;;4997289;28;20057;-80
2022/04/15 10:46:37;;;;;;;16.45;6.50;;;11.60;99.90;;;;;;5012747;28;20053;-80
2022/04/15 10:49:23;;;;;;;11.27;6.22;;;11.60;99.90;;;;;;5008971;28;20052;-80
2022/04/15 10:52:17;;;;;;;12.18;6.82;;;11.60;99.90;;;;;;5011058;28;20542;-87
2022/04/15 10:54:48;;;;;;;14.45;6.20;;;11.70;99.90;;;;;;5005471;28;20088;-83
2022/04/15 10:57:15;;;;;;;10.70;6.45;;;11.90;99.90;;;;;;5028909;28;20530;-84
2022/04/15 11:02:42;;;;;;;14.82;6.25;;;11.90;99.90;;;;;;5028713;28;20479;-84
2022/04/15 11:05:13;;;;;;;9.70;6.00;;;12.00;99.90;;;;;;5028640;28;20045;-83
2022/04/15 11:07:56;;;;;;;11.95;6.07;;;12.10;99.90;;;;;;5028411;28;20453;-84
2022/04/15 11:10:45;;;;;;;11.02;6.10;;;12.10;99.90;;;;;;5027479;28;20479;-85
2022/04/15 11:13:24;;;;;;;11.50;6.20;;;12.10;99.90;;;;;;5024475;28;20052;-82
2022/04/15 11:16:03;;;;;;;11.80;6.25;;;12.10;99.90;;;;;;5023304;28;20045;-86
2022/04/15 11:18:52;;;;;;;11.73;5.97;;;12.00;99.90;;;;;;5028323;28;20047;-84
2022/04/15 11:21:20;;;;;;;10.13;5.60;;;12.00;99.90;;;;;;5027298;28;20203;-84
2022/04/15 11:23:51;;;;;;;10.95;6.20;;;11.90;99.90;;;;;;5027266;28;20041;-84
2022/04/15 11:26:18;;;;;;;11.68;6.30;;;11.80;99.90;;;;;;5027394;28;20804;-83
2022/04/15 11:28:46;;;;;;;14.05;6.15;;;11.80;99.90;;;;;;5025010;28;20061;-83
2022/04/15 11:31:28;;;;;;;17.23;6.13;;;11.80;99.90;;;;;;5009847;28;20042;-84
2022/04/15 11:33:56;;;;;;;11.55;6.03;;;11.90;99.90;;;;;;5011523;28;20041;-84
2022/04/15 11:36:23;;;;;;;13.15;5.80;;;12.00;99.90;;;;;;5025272;28;20045;-84
2022/04/15 11:38:51;;;;;;;12.75;6.22;;;12.10;99.90;;;;;;5025996;28;20045;-84
2022/04/15 11:41:24;;;;;;;12.18;5.80;;;12.10;99.90;;;;;;4994856;28;20057;-84
2022/04/15 11:43:55;;;;;;;10.68;5.43;;;12.20;99.90;;;;;;5027528;28;20056;-83
2022/04/15 11:46:21;;;;;;;11.57;6.07;;;12.20;99.90;;;;;;5027215;28;20115;-84
2022/04/15 11:48:47;;;;;;;10.82;5.75;;;12.20;99.90;;;;;;5008642;28;20045;-83
2022/04/15 11:51:13;;;;;;;13.48;6.43;;;12.20;99.90;;;;;;5024148;28;20055;-90
2022/04/15 11:53:39;;;;;;;10.05;5.68;;;12.30;99.90;;;;;;5014336;28;20128;-82
2022/04/15 11:56:05;;;;;;;12.63;5.85;;;12.30;99.90;;;;;;5000599;28;20144;-85
2022/04/15 11:58:33;;;;;;;9.32;5.60;;;12.30;99.90;;;;;;4991417;28;20053;-84
2022/04/15 12:01:01;;;;;;;11.63;5.38;;;12.40;99.90;;;;;;5023215;28;20073;-84
2022/04/15 12:03:27;;;;;;;12.65;6.18;;;12.40;99.90;;;;;;5025297;28;20501;-82
2022/04/15 12:05:56;;;;;;;11.23;6.00;;;12.50;99.90;;;;;;5008725;28;20049;-83
2022/04/15 12:08:22;;;;;;;10.82;5.43;;;12.60;99.90;;;;;;5023419;28;20069;-83
2022/04/15 12:10:49;;;;;;;11.88;4.97;;;12.70;99.90;;;;;;4999551;28;20115;-83
2022/04/15 12:13:16;;;;;;;10.18;5.35;;;12.90;99.90;;;;;;5039684;28;20052;-84
2022/04/15 12:15:43;;;;;;;11.60;5.80;;;12.90;99.90;;;;;;4999603;28;20049;-84
2022/04/15 12:18:10;;;;;;;9.20;5.70;;;12.90;99.90;;;;;;5024179;28;20099;-85
2022/04/15 12:20:38;;;;;;;10.90;6.00;;;12.90;99.90;;;;;;5025906;28;20068;-83
2022/04/15 12:23:05;;;;;;;16.38;7.13;;;12.90;99.90;;;;;;5024611;28;20124;-83
2022/04/15 12:26:05;;;;;;;13.10;6.15;;;12.90;99.90;;;;;;5007914;28;20046;-84
2022/04/15 12:31:03;;;;;;;10.60;5.90;;;12.80;99.90;;;;;;5022343;28;20080;-83
2022/04/15 12:33:28;;;;;;;11.63;5.85;;;12.70;99.90;;;;;;5008723;28;20729;-85
2022/04/15 12:36:00;;;;;;;11.63;6.10;;;12.60;99.90;;;;;;4992327;28;20053;-85
2022/04/15 12:38:25;;;;;;;11.65;6.10;;;12.60;99.90;;;;;;5024139;28;20050;-86
2022/04/15 12:41:00;;;;;;;12.82;6.28;;;12.50;99.90;;;;;;5028742;28;20188;-84
2022/04/15 12:43:27;;;;;;;10.20;6.13;;;12.40;99.90;;;;;;4994509;28;20063;-82
2022/04/15 12:45:55;;;;;;;9.95;5.60;;;12.30;99.90;;;;;;5003074;28;20049;-84
2022/04/15 12:48:23;;;;;;;13.65;5.85;;;12.20;99.90;;;;;;5028964;28;20133;-85
2022/04/15 12:50:54;;;;;;;18.77;7.85;;;12.20;99.90;;;;;;5013149;28;20037;-85
2022/04/15 12:53:21;;;;;;;13.27;6.45;;;12.10;99.90;;;;;;5027276;28;20049;-85